SNOW

Not for real navigation. The accuracy of this data is not assured See disclaimer for more information



ICAO NAME COUNTRY WIND Kt GUST Kt VIS m TEMP/DEW C BARO METAR
KSAW Marquette, Sawyer Internationa MI United States 6 0 400 3/2 30.08 KSAW 221028Z 04006KT 0.25SM -SN OVC002 03/02 A3008
OITR Orumieh Iran 4 0 600 0/0 29.77 OITR 221000Z 36004KT 0600 SN SCT010 SCT025CB SCT030 OVC070 00/00 Q1008
KFBR 4 0 800 1/1 30.17 KFBR 221040Z AUTO 03004KT 0.5SM -SN OVC003 01/01 A3017 RMK AO2
PABA Barter Island, Barter Island L AK United States 0 0 800 -13/-14 29.86 PABA 220952Z 00000KT 0.5SM -SN FZFG OVC004 M13/M14 A2986 RMK AO2 SLP095 P0000 T11331144 FZRANO
PAPM Platinum AK United States 25 31 1200 -8/-10 29.58 PAPM 221032Z AUTO 30025G31KT 0.75SM -SN BR FEW009 BKN015 OVC021 M08/M10 A2958 RMK AO2 PK WND 30031/1

Show more